createdAt,value
2018-11-05T00:00:56.129Z,182.70
2018-11-05T00:01:56.093Z,146.00
2018-11-05T00:02:56.056Z,152.20
2018-11-05T00:03:56.023Z,168.80
2018-11-05T00:04:55.990Z,143.80
2018-11-05T00:05:55.950Z,142.20
2018-11-05T00:06:55.911Z,148.50
2018-11-05T00:07:55.877Z,157.20
2018-11-05T00:08:55.836Z,173.60
2018-11-05T00:09:55.810Z,167.60
2018-11-05T00:10:55.763Z,158.30
2018-11-05T00:11:55.725Z,132.80
2018-11-05T00:12:55.690Z,124.40
2018-11-05T00:13:55.656Z,129.30
2018-11-05T00:14:55.629Z,146.60
2018-11-05T00:15:55.580Z,160.00
2018-11-05T00:16:55.541Z,156.60
2018-11-05T00:17:55.510Z,152.10
2018-11-05T00:18:55.471Z,165.20
2018-11-05T00:19:55.444Z,140.80
2018-11-05T00:20:55.395Z,126.80
2018-11-05T00:21:55.369Z,126.90
2018-11-05T00:22:55.324Z,124.10
2018-11-05T00:23:55.288Z,121.80
2018-11-05T00:24:55.262Z,116.00
2018-11-05T00:25:55.215Z,129.90
2018-11-05T00:26:55.174Z,146.10
2018-11-05T00:27:55.141Z,137.50
2018-11-05T00:28:55.107Z,140.50
2018-11-05T00:29:55.076Z,159.40
2018-11-05T00:30:55.027Z,168.60
2018-11-05T00:31:54.992Z,188.30
2018-11-05T00:32:54.958Z,192.20
2018-11-05T00:33:54.919Z,177.70
2018-11-05T00:34:54.891Z,174.10
2018-11-05T00:35:54.844Z,188.10
2018-11-05T00:36:54.815Z,186.90
2018-11-05T00:37:54.771Z,195.10
2018-11-05T00:38:54.735Z,203.30
2018-11-05T00:39:54.705Z,218.00
2018-11-05T00:40:54.660Z,219.60
2018-11-05T00:41:54.626Z,221.20
2018-11-05T00:42:54.607Z,205.50
2018-11-05T00:43:54.554Z,200.70
2018-11-05T00:44:54.533Z,202.70
2018-11-05T00:45:54.475Z,210.90
2018-11-05T00:46:54.437Z,207.00
2018-11-05T00:47:54.408Z,192.30
2018-11-05T00:48:54.365Z,227.10
2018-11-05T00:49:54.339Z,209.30
2018-11-05T00:50:54.294Z,219.90
2018-11-05T00:51:54.252Z,240.00
2018-11-05T00:52:54.242Z,237.60
2018-11-05T00:53:54.180Z,234.50
2018-11-05T00:54:54.149Z,252.00
2018-11-05T00:55:54.103Z,248.40
2018-11-05T00:56:54.071Z,237.60
2018-11-05T00:57:54.031Z,253.30
2018-11-05T00:58:53.996Z,236.40
2018-11-05T00:59:53.973Z,262.70
2018-11-05T01:00:53.919Z,251.50
2018-11-05T01:01:53.886Z,264.00
2018-11-05T01:02:53.845Z,257.00
2018-11-05T01:03:53.809Z,261.30
2018-11-05T01:04:53.784Z,260.40
2018-11-05T01:05:53.735Z,274.30
2018-11-05T01:06:53.698Z,272.40
2018-11-05T01:07:53.660Z,262.90
2018-11-05T01:08:53.625Z,273.10
2018-11-05T01:09:53.604Z,292.40
2018-11-05T01:10:53.551Z,284.30
2018-11-05T01:11:53.513Z,271.40
2018-11-05T01:12:53.478Z,275.80
2018-11-05T01:13:53.449Z,276.60
2018-11-05T01:14:53.404Z,284.30
2018-11-05T01:15:53.380Z,282.60
2018-11-05T01:16:53.339Z,295.30
2018-11-05T01:17:53.292Z,278.10
2018-11-05T01:18:53.252Z,271.30
2018-11-05T01:19:53.221Z,277.50
2018-11-05T01:20:53.186Z,307.90
2018-11-05T01:21:53.142Z,308.70
2018-11-05T01:22:53.106Z,290.10
2018-11-05T01:23:53.070Z,274.40
2018-11-05T01:24:53.032Z,273.80
2018-11-05T01:25:53.008Z,259.40
2018-11-05T01:26:52.956Z,277.00
2018-11-05T01:27:52.922Z,277.80
2018-11-05T01:28:52.886Z,284.00
2018-11-05T01:29:52.844Z,290.90
2018-11-05T01:30:52.820Z,278.70
2018-11-05T01:31:52.775Z,290.50
2018-11-05T01:32:52.735Z,275.80
2018-11-05T01:33:52.698Z,276.10
2018-11-05T01:34:52.660Z,311.50
2018-11-05T01:35:52.636Z,281.70
2018-11-05T01:36:52.587Z,294.40
2018-11-05T01:37:52.552Z,287.80
2018-11-05T01:38:52.512Z,310.30
2018-11-05T01:39:52.479Z,288.80
2018-11-05T01:40:52.455Z,273.40
2018-11-05T01:41:52.404Z,266.60
2018-11-05T01:42:52.381Z,270.40
2018-11-05T01:43:52.333Z,252.60
2018-11-05T01:44:52.292Z,258.70
2018-11-05T01:45:52.266Z,261.10
2018-11-05T01:46:52.216Z,269.30
2018-11-05T01:47:52.179Z,255.20
2018-11-05T01:48:52.141Z,254.70
2018-11-05T01:49:52.106Z,264.60
2018-11-05T01:50:52.079Z,279.50
2018-11-05T01:51:52.031Z,251.00
2018-11-05T01:52:51.995Z,255.60
2018-11-05T01:53:51.957Z,255.00
2018-11-05T01:54:51.921Z,238.70
2018-11-05T01:55:51.891Z,256.50
2018-11-05T01:56:51.845Z,248.50
2018-11-05T01:57:51.812Z,246.90
2018-11-05T01:58:51.771Z,255.10
2018-11-05T01:59:51.736Z,263.60
2018-11-05T02:00:51.708Z,280.90
2018-11-05T02:01:51.662Z,261.00
2018-11-05T02:02:51.624Z,276.50
2018-11-05T02:03:51.588Z,276.20
2018-11-05T02:04:51.559Z,256.10
2018-11-05T02:05:51.521Z,268.00
2018-11-05T02:06:51.476Z,246.40
2018-11-05T02:07:51.440Z,248.70
2018-11-05T02:08:51.402Z,255.60
2018-11-05T02:09:51.363Z,241.30
2018-11-05T02:10:51.335Z,263.00
2018-11-05T02:11:51.290Z,272.30
2018-11-05T02:12:51.252Z,267.60
2018-11-05T02:13:51.218Z,263.90
2018-11-05T02:14:51.180Z,266.90
2018-11-05T02:15:51.203Z,264.00
2018-11-05T02:16:51.103Z,289.10
2018-11-05T02:17:51.070Z,263.40
2018-11-05T02:18:51.034Z,258.50
2018-11-05T02:19:50.988Z,276.80
2018-11-05T02:20:50.967Z,282.20
2018-11-05T02:21:50.919Z,275.60
2018-11-05T02:22:50.882Z,268.30
2018-11-05T02:23:50.845Z,286.90
2018-11-05T02:24:50.805Z,266.60
2018-11-05T02:25:50.772Z,277.20
2018-11-05T02:26:50.745Z,271.50
2018-11-05T02:27:50.694Z,273.30
2018-11-05T02:28:50.656Z,278.90
2018-11-05T02:29:50.620Z,284.80
2018-11-05T02:30:50.584Z,280.40
2018-11-05T02:31:50.567Z,293.60
2018-11-05T02:32:50.513Z,278.70
2018-11-05T02:33:50.473Z,290.70
2018-11-05T02:34:50.433Z,304.80
2018-11-05T02:35:50.398Z,307.30
2018-11-05T02:36:50.389Z,287.90
2018-11-05T02:37:50.327Z,287.30
2018-11-05T02:38:50.287Z,303.10
2018-11-05T02:39:50.258Z,302.90
2018-11-05T02:40:50.211Z,279.50
2018-11-05T02:41:50.190Z,302.70
2018-11-05T02:42:50.140Z,286.90
2018-11-05T02:43:50.103Z,305.00
2018-11-05T02:44:50.063Z,285.20
2018-11-05T02:45:50.026Z,295.80
2018-11-05T02:46:49.999Z,303.30
2018-11-05T02:47:49.950Z,283.70
2018-11-05T02:48:49.917Z,311.40
2018-11-05T02:49:49.876Z,293.70
2018-11-05T02:50:49.841Z,285.70
2018-11-05T02:51:49.815Z,278.70
2018-11-05T02:52:49.773Z,284.20
2018-11-05T02:53:49.729Z,275.60
2018-11-05T02:54:49.689Z,306.80
2018-11-05T02:55:49.657Z,280.50
2018-11-05T02:56:49.629Z,280.20
2018-11-05T02:57:49.581Z,271.30
2018-11-05T02:58:49.542Z,302.80
2018-11-05T02:59:49.504Z,287.80
2018-11-05T03:00:49.475Z,280.90
2018-11-05T03:01:49.468Z,274.80
2018-11-05T03:02:49.400Z,295.10
2018-11-05T03:03:49.355Z,310.40
2018-11-05T03:04:49.318Z,298.70
2018-11-05T03:05:49.285Z,306.30
2018-11-05T03:06:49.250Z,292.50
2018-11-05T03:07:49.210Z,291.20
2018-11-05T03:08:49.173Z,282.50
2018-11-05T03:09:49.135Z,273.60
2018-11-05T03:10:49.097Z,277.00
2018-11-05T03:11:49.070Z,283.70
2018-11-05T03:12:49.026Z,274.00
2018-11-05T03:13:48.989Z,288.50
2018-11-05T03:14:48.949Z,264.80
2018-11-05T03:15:48.911Z,256.50
2018-11-05T03:16:48.882Z,254.90
2018-11-05T03:17:48.840Z,269.40
2018-11-05T03:18:48.799Z,260.80
2018-11-05T03:19:48.761Z,271.90
2018-11-05T03:20:48.730Z,263.90
2018-11-05T03:21:48.696Z,275.90
2018-11-05T03:22:48.651Z,273.10
2018-11-05T03:23:48.613Z,278.60
2018-11-05T03:24:48.577Z,281.50
2018-11-05T03:25:48.549Z,267.00
2018-11-05T03:26:48.512Z,266.20
2018-11-05T03:27:48.464Z,244.10
2018-11-05T03:28:48.427Z,275.50
2018-11-05T03:29:48.392Z,260.90
2018-11-05T03:30:48.354Z,264.80
2018-11-05T03:31:48.325Z,251.10
2018-11-05T03:32:48.278Z,248.60
2018-11-05T03:33:48.242Z,256.50
2018-11-05T03:34:48.211Z,238.30
2018-11-05T03:35:48.227Z,269.20
2018-11-05T03:36:48.155Z,283.90
2018-11-05T03:37:48.096Z,280.30
2018-11-05T03:38:48.054Z,296.30
2018-11-05T03:39:48.017Z,297.00
2018-11-05T03:40:47.982Z,270.60
2018-11-05T03:41:47.956Z,264.40
2018-11-05T03:42:47.953Z,269.80
2018-11-05T03:43:47.869Z,246.30
2018-11-05T03:44:47.835Z,237.60
2018-11-05T03:45:47.793Z,239.70
2018-11-05T03:46:47.755Z,241.20
2018-11-05T03:47:47.730Z,235.70
2018-11-05T03:48:47.682Z,226.90
2018-11-05T03:49:47.647Z,245.70
2018-11-05T03:50:47.608Z,237.60
2018-11-05T03:51:47.572Z,247.20
2018-11-05T03:52:47.544Z,254.30
2018-11-05T03:53:47.497Z,262.80
2018-11-05T03:54:47.520Z,275.30
2018-11-05T03:55:47.436Z,275.70
2018-11-05T03:56:47.458Z,276.20
2018-11-05T03:57:47.358Z,300.50
2018-11-05T03:58:47.310Z,309.30
2018-11-05T03:59:47.276Z,291.90
2018-11-05T04:00:47.246Z,275.50
2018-11-05T04:01:47.202Z,271.70
2018-11-05T04:02:47.167Z,291.30
2018-11-05T04:03:47.123Z,275.40
2018-11-05T04:04:47.091Z,259.70
2018-11-05T04:05:47.051Z,284.80
2018-11-05T04:06:47.011Z,255.90
2018-11-05T04:07:46.987Z,259.90
2018-11-05T04:08:46.938Z,252.20
2018-11-05T04:09:46.903Z,249.30
2018-11-05T04:10:46.865Z,246.70
2018-11-05T04:11:46.834Z,245.50
2018-11-05T04:12:46.798Z,250.90
2018-11-05T04:13:46.751Z,257.20
2018-11-05T04:14:46.714Z,237.80
2018-11-05T04:15:46.761Z,253.10
2018-11-05T04:16:46.641Z,259.10
2018-11-05T04:17:46.617Z,250.10
2018-11-05T04:18:46.567Z,250.60
2018-11-05T04:19:46.528Z,275.30
2018-11-05T04:20:46.491Z,286.80
2018-11-05T04:21:46.454Z,264.00
2018-11-05T04:22:46.425Z,273.00
2018-11-05T04:23:46.378Z,268.30
2018-11-05T04:24:46.339Z,258.40
2018-11-05T04:25:46.305Z,255.50
2018-11-05T04:26:46.265Z,274.60
2018-11-05T04:27:46.311Z,255.00
2018-11-05T04:28:46.193Z,234.90
2018-11-05T04:29:46.154Z,278.80
2018-11-05T04:30:46.120Z,259.30
2018-11-05T04:31:46.082Z,289.70
2018-11-05T04:32:46.050Z,278.10
2018-11-05T04:33:46.011Z,307.00
2018-11-05T04:34:45.976Z,317.40
2018-11-05T04:35:45.934Z,318.60
2018-11-05T04:36:45.897Z,298.80
2018-11-05T04:37:45.869Z,315.50
2018-11-05T04:38:45.819Z,304.30
2018-11-05T04:39:45.786Z,303.60
2018-11-05T04:40:45.745Z,313.50
2018-11-05T04:41:45.722Z,298.60
2018-11-05T04:42:45.677Z,300.30
2018-11-05T04:43:45.637Z,325.90
2018-11-05T04:44:45.599Z,340.60
2018-11-05T04:45:45.559Z,336.90
2018-11-05T04:46:45.522Z,320.60
2018-11-05T04:47:45.506Z,306.60
2018-11-05T04:48:45.455Z,310.50
2018-11-05T04:49:45.414Z,288.30
2018-11-05T04:50:45.374Z,292.40
2018-11-05T04:51:45.343Z,287.60
2018-11-05T04:52:45.300Z,295.50
2018-11-05T04:53:45.277Z,297.00
2018-11-05T04:54:45.231Z,306.30
2018-11-05T04:55:45.187Z,315.10
2018-11-05T04:56:45.155Z,284.30
2018-11-05T04:57:45.114Z,308.70
2018-11-05T04:58:45.087Z,318.70
2018-11-05T04:59:45.043Z,316.90
2018-11-05T05:00:47.549Z,313.10
2018-11-05T05:01:44.969Z,339.30
2018-11-05T05:02:44.929Z,352.00
2018-11-05T05:03:44.902Z,331.80
2018-11-05T05:04:44.859Z,332.00
2018-11-05T05:05:44.820Z,355.10
2018-11-05T05:06:44.779Z,357.10
2018-11-05T05:07:44.747Z,351.30
2018-11-05T05:08:44.720Z,353.60
2018-11-05T05:09:44.670Z,365.20
2018-11-05T05:10:44.628Z,359.50
2018-11-05T05:11:44.596Z,331.70
2018-11-05T05:12:44.557Z,347.90
2018-11-05T05:13:44.531Z,340.90
2018-11-05T05:14:44.486Z,377.30
2018-11-05T05:15:44.445Z,378.50
2018-11-05T05:16:44.413Z,370.50
2018-11-05T05:17:44.377Z,369.90
2018-11-05T05:18:44.341Z,388.20
2018-11-05T05:19:44.296Z,381.80
2018-11-05T05:20:44.258Z,376.30
2018-11-05T05:21:44.221Z,368.00
2018-11-05T05:22:44.517Z,374.80
2018-11-05T05:23:44.165Z,370.80
2018-11-05T05:24:44.111Z,355.00
2018-11-05T05:25:44.074Z,367.70
2018-11-05T05:26:44.036Z,359.10
2018-11-05T05:27:43.997Z,379.80
2018-11-05T05:28:43.971Z,380.60
2018-11-05T05:29:43.924Z,363.40
2018-11-05T05:30:43.892Z,311.30
2018-11-05T05:31:43.848Z,347.10
2018-11-05T05:32:43.817Z,304.20
2018-11-05T05:33:43.802Z,323.80
2018-11-05T05:34:43.741Z,303.50
2018-11-05T05:35:43.706Z,335.60
2018-11-05T05:36:43.658Z,317.00
2018-11-05T05:37:43.631Z,302.30
2018-11-05T05:38:43.598Z,309.80
2018-11-05T05:39:43.550Z,288.40
2018-11-05T05:40:43.600Z,279.70
2018-11-05T05:41:43.475Z,296.00
2018-11-05T05:42:43.443Z,303.60
2018-11-05T05:43:43.410Z,318.90
2018-11-05T05:44:43.365Z,356.30
2018-11-05T05:45:43.326Z,318.30
2018-11-05T05:46:43.289Z,325.50
2018-11-05T05:47:43.250Z,320.40
2018-11-05T05:48:43.226Z,322.10
2018-11-05T05:49:43.180Z,294.90
2018-11-05T05:50:43.138Z,268.10
2018-11-05T05:51:43.101Z,299.70
2018-11-05T05:52:43.064Z,274.80
2018-11-05T05:53:43.038Z,276.20
2018-11-05T05:54:42.989Z,254.90
2018-11-05T05:55:42.950Z,241.00
2018-11-05T05:56:42.915Z,250.00
2018-11-05T05:57:42.878Z,278.50
2018-11-05T05:58:42.853Z,266.60
2018-11-05T05:59:42.833Z,291.70
2018-11-05T06:00:42.760Z,288.30
2018-11-05T06:01:42.725Z,285.10
2018-11-05T06:02:42.703Z,262.30
2018-11-05T06:03:42.652Z,280.60
2018-11-05T06:04:42.624Z,305.20
2018-11-05T06:05:42.582Z,340.00
2018-11-05T06:06:42.545Z,365.70
2018-11-05T06:07:42.504Z,355.80
2018-11-05T06:08:42.466Z,319.80
2018-11-05T06:09:42.439Z,338.30
2018-11-05T06:10:42.391Z,299.00
2018-11-05T06:11:42.353Z,291.20
2018-11-05T06:12:42.317Z,309.60
2018-11-05T06:13:42.281Z,336.70
2018-11-05T06:14:42.261Z,328.00
2018-11-05T06:15:42.218Z,341.70
2018-11-05T06:16:42.169Z,322.60
2018-11-05T06:17:42.134Z,352.10
2018-11-05T06:18:42.095Z,307.30
2018-11-05T06:19:42.068Z,327.10
2018-11-05T06:20:42.022Z,321.20
2018-11-05T06:21:41.996Z,333.90
2018-11-05T06:22:41.948Z,328.90
2018-11-05T06:23:41.914Z,345.20
2018-11-05T06:24:41.890Z,329.20
2018-11-05T06:25:41.837Z,346.80
2018-11-05T06:26:41.800Z,360.80
2018-11-05T06:27:41.765Z,346.50
2018-11-05T06:28:41.803Z,351.80
2018-11-05T06:29:41.706Z,340.10
2018-11-05T06:30:41.655Z,339.70
2018-11-05T06:31:41.629Z,351.90
2018-11-05T06:32:41.583Z,345.70
2018-11-05T06:33:41.547Z,338.80
2018-11-05T06:34:41.520Z,310.90
2018-11-05T06:35:41.476Z,331.30
2018-11-05T06:36:41.435Z,327.00
2018-11-05T06:37:41.398Z,332.00
2018-11-05T06:38:41.365Z,332.50
2018-11-05T06:39:41.337Z,325.10
2018-11-05T06:40:41.291Z,343.80
2018-11-05T06:41:41.338Z,313.00
2018-11-05T06:42:41.342Z,331.20
2018-11-05T06:43:41.181Z,336.60
2018-11-05T06:44:41.181Z,318.60
2018-11-05T06:45:41.114Z,343.40
2018-11-05T06:46:41.073Z,340.50
2018-11-05T06:47:41.036Z,342.00
2018-11-05T06:48:41.037Z,327.60
2018-11-05T06:49:40.977Z,316.10
2018-11-05T06:50:40.926Z,329.50
2018-11-05T06:51:40.891Z,321.10
2018-11-05T06:52:40.870Z,308.20
2018-11-05T06:53:40.821Z,323.50
2018-11-05T06:54:40.792Z,319.20
2018-11-05T06:55:40.744Z,339.40
2018-11-05T06:56:40.710Z,323.00
2018-11-05T06:57:40.723Z,329.40
2018-11-05T06:58:40.637Z,346.80
2018-11-05T06:59:40.613Z,341.70
2018-11-05T07:00:40.571Z,327.10
2018-11-05T07:01:40.533Z,310.80
2018-11-05T07:02:40.613Z,312.90
2018-11-05T07:03:40.459Z,297.70
2018-11-05T07:04:40.430Z,282.70
2018-11-05T07:05:40.389Z,297.60
2018-11-05T07:06:40.351Z,300.50
2018-11-05T07:07:40.315Z,299.00
2018-11-05T07:08:40.282Z,299.00
2018-11-05T07:09:40.305Z,292.20
2018-11-05T07:10:40.206Z,286.00
2018-11-05T07:11:40.169Z,275.00
2018-11-05T07:12:40.140Z,292.70
2018-11-05T07:13:40.099Z,269.10
2018-11-05T07:14:40.083Z,273.60
2018-11-05T07:15:40.023Z,268.80
2018-11-05T07:16:39.991Z,263.80
2018-11-05T07:17:39.953Z,258.30
2018-11-05T07:18:40.062Z,263.80
2018-11-05T07:19:39.888Z,282.50
2018-11-05T07:20:39.855Z,266.50
2018-11-05T07:21:39.825Z,248.60
2018-11-05T07:22:39.777Z,256.30
2018-11-05T07:23:39.739Z,252.30
2018-11-05T07:24:39.709Z,260.60
2018-11-05T07:25:39.677Z,242.30
2018-11-05T07:26:39.667Z,246.60
2018-11-05T07:27:39.676Z,228.30
2018-11-05T07:28:39.565Z,220.10
2018-11-05T07:29:39.529Z,241.30
2018-11-05T07:30:39.496Z,226.70
2018-11-05T07:31:39.454Z,227.90
2018-11-05T07:32:39.419Z,223.00
2018-11-05T07:33:39.421Z,212.90
2018-11-05T07:34:39.347Z,205.10
2018-11-05T07:35:39.323Z,199.50
2018-11-05T07:36:39.274Z,199.40
2018-11-05T07:37:39.243Z,211.80
2018-11-05T07:38:39.205Z,214.00
2018-11-05T07:39:39.169Z,200.40
2018-11-05T07:40:39.152Z,216.60
2018-11-05T07:41:39.099Z,206.50
2018-11-05T07:42:39.064Z,200.40
2018-11-05T07:43:39.027Z,191.10
2018-11-05T07:44:38.999Z,200.50
2018-11-05T07:45:38.962Z,193.40
2018-11-05T07:46:38.921Z,191.70
2018-11-05T07:47:38.888Z,185.90
2018-11-05T07:48:38.851Z,194.00
2018-11-05T07:49:38.815Z,193.50
2018-11-05T07:50:38.847Z,178.30
2018-11-05T07:51:38.745Z,191.00
2018-11-05T07:52:38.711Z,195.50
2018-11-05T07:53:38.677Z,185.00
2018-11-05T07:54:38.640Z,182.40
2018-11-05T07:55:38.613Z,169.60
2018-11-05T07:56:38.601Z,170.70
2018-11-05T07:57:38.538Z,173.90
2018-11-05T07:58:38.499Z,167.90
2018-11-05T07:59:38.463Z,161.20
2018-11-05T08:00:38.438Z,163.10
2018-11-05T08:01:38.408Z,165.00
2018-11-05T08:02:38.395Z,162.30
2018-11-05T08:03:38.325Z,168.60
2018-11-05T08:04:38.290Z,166.40
2018-11-05T08:05:38.265Z,156.80
2018-11-05T08:06:38.218Z,158.30
2018-11-05T08:07:38.181Z,139.40
2018-11-05T08:08:38.153Z,146.10
2018-11-05T08:09:38.114Z,145.30
2018-11-05T08:10:38.090Z,148.90
2018-11-05T08:11:38.046Z,153.70
2018-11-05T08:12:38.012Z,148.30
2018-11-05T08:13:37.981Z,140.10
2018-11-05T08:14:37.949Z,138.00
2018-11-05T08:15:37.916Z,137.10
2018-11-05T08:16:37.875Z,139.30
2018-11-05T08:17:37.837Z,128.00
2018-11-05T08:18:37.804Z,128.70
2018-11-05T08:19:37.767Z,133.30
2018-11-05T08:20:37.743Z,121.20
2018-11-05T08:21:37.697Z,123.20
2018-11-05T08:22:37.663Z,124.80
2018-11-05T08:23:37.627Z,105.60
2018-11-05T08:24:37.596Z,109.80
2018-11-05T08:25:37.581Z,111.80
2018-11-05T08:26:37.524Z,103.20
2018-11-05T08:27:37.488Z,101.80
2018-11-05T08:28:37.455Z,106.10
2018-11-05T08:29:37.423Z,98.00
2018-11-05T08:30:37.382Z,102.50
2018-11-05T08:31:37.358Z,97.50
2018-11-05T08:32:37.319Z,96.40
2018-11-05T08:33:37.283Z,96.00
2018-11-05T08:34:37.250Z,88.10
2018-11-05T08:35:37.214Z,89.10
2018-11-05T08:36:37.187Z,89.10
2018-11-05T08:37:37.142Z,89.80
2018-11-05T08:38:37.112Z,90.50
2018-11-05T08:39:37.076Z,83.30
2018-11-05T08:40:37.046Z,83.70
2018-11-05T08:41:37.015Z,79.20
2018-11-05T08:42:36.974Z,80.50
2018-11-05T08:43:36.943Z,84.90
2018-11-05T08:44:36.904Z,77.30
2018-11-05T08:45:36.872Z,78.40
2018-11-05T08:46:36.848Z,79.30
2018-11-05T08:47:36.800Z,73.40
2018-11-05T08:48:36.771Z,74.90
2018-11-05T08:49:36.736Z,73.00
2018-11-05T08:50:36.789Z,79.30
2018-11-05T08:51:36.968Z,70.70
2018-11-05T08:52:36.637Z,75.00
2018-11-05T08:53:36.605Z,76.50
2018-11-05T08:54:36.566Z,78.20
2018-11-05T08:55:36.530Z,71.20
2018-11-05T08:56:36.523Z,68.80
2018-11-05T08:57:36.531Z,72.50
2018-11-05T08:58:36.432Z,67.80
2018-11-05T08:59:36.397Z,75.40
2018-11-05T09:00:36.366Z,71.10
2018-11-05T09:01:36.334Z,70.70
2018-11-05T09:02:36.306Z,69.80
2018-11-05T09:03:36.281Z,71.30
2018-11-05T09:04:36.288Z,72.90
2018-11-05T09:05:36.195Z,72.30
2018-11-05T09:06:36.163Z,77.40
2018-11-05T09:07:36.131Z,71.60
2018-11-05T09:08:36.105Z,68.00
2018-11-05T09:09:36.072Z,73.70
2018-11-05T09:10:36.335Z,75.40
2018-11-05T09:11:36.459Z,69.30
2018-11-05T09:12:35.964Z,73.10
2018-11-05T09:13:35.937Z,72.40
2018-11-05T09:14:35.898Z,67.50
2018-11-05T09:15:35.869Z,64.20
2018-11-05T09:16:35.832Z,62.60
2018-11-05T09:17:35.804Z,66.30
2018-11-05T09:18:35.788Z,64.70
2018-11-05T09:19:35.735Z,61.60
2018-11-05T09:20:35.711Z,70.50
2018-11-05T09:21:35.670Z,69.00
2018-11-05T09:22:35.633Z,67.70
2018-11-05T09:23:35.599Z,65.60
2018-11-05T09:24:35.576Z,62.00
2018-11-05T09:25:35.533Z,62.20
2018-11-05T09:26:35.502Z,62.10
2018-11-05T09:27:35.469Z,61.00
2018-11-05T09:28:35.439Z,67.20
2018-11-05T09:29:35.412Z,60.20
2018-11-05T09:30:35.370Z,61.60
2018-11-05T09:31:35.334Z,53.30
2018-11-05T09:32:35.300Z,60.10
2018-11-05T09:33:35.274Z,58.80
2018-11-05T09:34:35.259Z,61.10
2018-11-05T09:35:35.205Z,58.50
2018-11-05T09:36:35.169Z,57.70
2018-11-05T09:37:35.137Z,60.10
2018-11-05T09:38:35.103Z,58.90
2018-11-05T09:39:35.070Z,62.00
2018-11-05T09:40:35.046Z,60.50
2018-11-05T09:41:35.005Z,59.60
2018-11-05T09:42:34.987Z,63.40
2018-11-05T09:43:34.942Z,58.20
2018-11-05T09:44:34.907Z,57.20
2018-11-05T09:45:34.889Z,63.50
2018-11-05T09:46:34.844Z,59.50
2018-11-05T09:47:34.812Z,58.30
2018-11-05T09:48:34.775Z,55.30
2018-11-05T09:49:34.765Z,61.50
2018-11-05T09:50:34.721Z,64.10
2018-11-05T09:51:34.675Z,58.60
2018-11-05T09:52:34.640Z,65.40
2018-11-05T09:53:34.609Z,63.30
2018-11-05T09:54:34.574Z,67.80
2018-11-05T09:55:34.607Z,59.10
2018-11-05T09:56:34.506Z,52.60
2018-11-05T09:57:34.474Z,51.20
2018-11-05T09:58:34.442Z,50.90
2018-11-05T09:59:34.409Z,52.20
2018-11-05T10:00:34.383Z,44.10
2018-11-05T10:01:34.344Z,44.40
2018-11-05T10:02:34.325Z,44.30
2018-11-05T10:03:34.529Z,46.40
2018-11-05T10:04:34.430Z,44.20
2018-11-05T10:05:34.259Z,45.50
2018-11-05T10:06:34.177Z,40.40
2018-11-05T10:07:34.145Z,47.30
2018-11-05T10:08:34.115Z,43.50
2018-11-05T10:09:34.108Z,41.20
2018-11-05T10:10:34.046Z,39.80
2018-11-05T10:11:34.032Z,44.30
2018-11-05T10:12:33.981Z,46.20
2018-11-05T10:13:33.946Z,43.10
2018-11-05T10:14:33.915Z,47.10
2018-11-05T10:15:33.880Z,51.70
2018-11-05T10:16:33.859Z,51.00
2018-11-05T10:17:33.814Z,40.90
2018-11-05T10:18:33.789Z,37.90
2018-11-05T10:19:33.755Z,38.80
2018-11-05T10:20:33.710Z,41.50
2018-11-05T10:21:33.695Z,46.20
2018-11-05T10:22:33.651Z,37.40
2018-11-05T10:23:33.617Z,37.90
2018-11-05T10:24:33.678Z,37.90
2018-11-05T10:25:33.551Z,42.70
2018-11-05T10:26:33.542Z,39.80
2018-11-05T10:27:33.486Z,38.70
2018-11-05T10:28:33.455Z,40.00
2018-11-05T10:29:33.425Z,40.80
2018-11-05T10:30:33.385Z,42.30
2018-11-05T10:31:33.357Z,37.70
2018-11-05T10:32:33.334Z,41.90
2018-11-05T10:33:33.378Z,40.30
2018-11-05T10:34:33.259Z,40.10
2018-11-05T10:35:33.230Z,38.60
2018-11-05T10:36:33.193Z,39.20
2018-11-05T10:37:33.172Z,46.40
2018-11-05T10:38:33.152Z,39.90
2018-11-05T10:39:33.100Z,38.80
2018-11-05T10:40:33.125Z,40.50
2018-11-05T10:41:33.032Z,37.40
2018-11-05T10:42:33.012Z,40.20
2018-11-05T10:43:32.968Z,38.60
2018-11-05T10:44:32.933Z,40.30
2018-11-05T10:45:32.901Z,39.10
2018-11-05T10:46:32.867Z,41.60
2018-11-05T10:47:32.847Z,37.90
2018-11-05T10:48:32.817Z,42.70
2018-11-05T10:49:32.772Z,39.00
2018-11-05T10:50:32.758Z,35.90
2018-11-05T10:51:32.728Z,36.70
2018-11-05T10:52:32.690Z,39.90
2018-11-05T10:53:32.641Z,38.20
2018-11-05T10:54:32.611Z,42.30
2018-11-05T10:55:32.575Z,35.90
2018-11-05T10:56:32.545Z,38.50
2018-11-05T10:57:32.517Z,34.10
2018-11-05T10:58:32.492Z,36.10
2018-11-05T10:59:32.528Z,35.30
2018-11-05T11:00:32.411Z,38.70
2018-11-05T11:01:32.385Z,34.00
2018-11-05T11:02:32.351Z,31.90
2018-11-05T11:03:32.334Z,36.60
2018-11-05T11:04:32.383Z,33.70
2018-11-05T11:05:32.256Z,32.40
2018-11-05T11:06:32.223Z,35.40
2018-11-05T11:07:32.191Z,35.70
2018-11-05T11:08:32.170Z,35.60
2018-11-05T11:09:32.190Z,32.90
2018-11-05T11:10:32.094Z,31.70
2018-11-05T11:11:32.061Z,34.00
2018-11-05T11:12:32.029Z,32.30
2018-11-05T11:13:32.007Z,42.80
2018-11-05T11:14:31.964Z,30.20
2018-11-05T11:15:31.934Z,32.20
2018-11-05T11:16:31.898Z,31.10
2018-11-05T11:17:31.871Z,37.60
2018-11-05T11:18:31.846Z,30.30
2018-11-05T11:19:31.806Z,30.30
2018-11-05T11:20:31.772Z,33.90
2018-11-05T11:21:31.742Z,29.80
2018-11-05T11:22:31.710Z,36.90
2018-11-05T11:23:31.701Z,34.70
2018-11-05T11:24:31.642Z,33.70
2018-11-05T11:25:31.615Z,39.40
2018-11-05T11:26:31.582Z,29.00
2018-11-05T11:27:31.571Z,36.10
2018-11-05T11:28:31.526Z,29.50
2018-11-05T11:29:31.694Z,32.00
2018-11-05T11:30:31.455Z,33.80
2018-11-05T11:31:31.432Z,33.10
2018-11-05T11:32:31.392Z,34.70
2018-11-05T11:33:31.363Z,39.20
2018-11-05T11:34:31.334Z,31.10
2018-11-05T11:35:31.296Z,30.10
2018-11-05T11:36:31.323Z,30.20
2018-11-05T11:37:31.232Z,28.60
2018-11-05T11:38:31.201Z,29.80
2018-11-05T11:39:31.234Z,32.30
2018-11-05T11:40:31.143Z,29.90
2018-11-05T11:41:31.107Z,34.10
2018-11-05T11:42:31.080Z,38.00
2018-11-05T11:43:31.045Z,34.50
2018-11-05T11:44:31.020Z,33.80
2018-11-05T11:45:30.990Z,32.20
2018-11-05T11:46:30.947Z,35.30
2018-11-05T11:47:30.922Z,28.20
2018-11-05T11:48:30.883Z,28.70
2018-11-05T11:49:30.854Z,32.00
2018-11-05T11:50:30.830Z,31.60
2018-11-05T11:51:30.790Z,29.90
2018-11-05T11:52:30.768Z,29.80
2018-11-05T11:53:30.865Z,31.70
2018-11-05T11:54:30.695Z,32.40
2018-11-05T11:55:30.679Z,30.80
2018-11-05T11:56:30.634Z,29.60
2018-11-05T11:57:30.626Z,30.60
2018-11-05T11:58:30.578Z,31.80
2018-11-05T11:59:30.542Z,32.30
2018-11-05T12:00:30.521Z,33.20
2018-11-05T12:01:30.478Z,33.00
2018-11-05T12:02:30.443Z,31.10
2018-11-05T12:03:30.413Z,30.50
2018-11-05T12:04:30.381Z,29.60
2018-11-05T12:05:30.518Z,30.60
2018-11-05T12:06:30.321Z,29.00
2018-11-05T12:07:30.288Z,32.70
2018-11-05T12:08:30.257Z,30.10
2018-11-05T12:09:30.227Z,30.40
2018-11-05T12:10:30.193Z,35.70
2018-11-05T12:11:30.172Z,30.20
2018-11-05T12:12:30.132Z,35.00
2018-11-05T12:13:30.099Z,32.50
2018-11-05T12:14:30.128Z,34.30
2018-11-05T12:15:30.037Z,34.30
2018-11-05T12:16:30.015Z,33.60
2018-11-05T12:17:29.975Z,31.80
2018-11-05T12:18:29.963Z,35.30
2018-11-05T12:19:29.911Z,30.50
2018-11-05T12:20:29.893Z,30.30
2018-11-05T12:21:29.857Z,32.80
2018-11-05T12:22:29.817Z,31.30
2018-11-05T12:23:29.786Z,28.60
2018-11-05T12:24:29.810Z,34.60
2018-11-05T12:25:29.728Z,33.50
2018-11-05T12:26:29.703Z,28.40
2018-11-05T12:27:29.662Z,35.00
2018-11-05T12:28:29.634Z,30.30
2018-11-05T12:29:29.598Z,31.50
2018-11-05T12:30:29.567Z,27.20
2018-11-05T12:31:29.550Z,32.30
2018-11-05T12:32:29.504Z,28.00
2018-11-05T12:33:29.476Z,33.80
2018-11-05T12:34:29.444Z,26.30
2018-11-05T12:35:29.411Z,33.30
2018-11-05T12:36:29.405Z,30.20